createdAt,value
2018-09-06T00:00:47.642Z,77.20
2018-09-06T00:03:31.967Z,77.30
2018-09-06T00:06:16.555Z,77.80
2018-09-06T00:09:01.478Z,78.20
2018-09-06T00:11:46.140Z,78.90
2018-09-06T00:14:29.923Z,79.50
2018-09-06T00:17:13.987Z,79.90
2018-09-06T00:19:58.380Z,80.50
2018-09-06T00:22:42.137Z,80.70
2018-09-06T00:25:26.313Z,81.00
2018-09-06T00:28:10.520Z,81.30
2018-09-06T00:30:54.300Z,81.80
2018-09-06T00:36:21.431Z,82.60
2018-09-06T00:39:07.284Z,82.90
2018-09-06T00:41:51.059Z,83.40
2018-09-06T00:44:34.795Z,83.90
2018-09-06T00:47:18.531Z,84.10
2018-09-06T00:50:02.580Z,84.60
2018-09-06T00:52:48.400Z,85.20
2018-09-06T00:55:32.182Z,85.70
2018-09-06T00:58:16.697Z,86.10
2018-09-06T01:01:00.403Z,86.20
2018-09-06T01:03:44.150Z,87.10
2018-09-06T01:06:28.054Z,87.30
2018-09-06T01:09:12.149Z,87.50
2018-09-06T01:11:55.857Z,87.60
2018-09-06T01:14:40.338Z,87.80
2018-09-06T01:17:24.039Z,88.20
2018-09-06T01:20:07.898Z,88.20
2018-09-06T01:25:40.466Z,88.80
2018-09-06T01:28:24.222Z,89.20
2018-09-06T01:31:08.822Z,89.30
2018-09-06T01:33:52.902Z,89.40
2018-09-06T01:36:42.335Z,89.90
2018-09-06T01:39:26.936Z,90.10
2018-09-06T01:42:11.188Z,90.20
2018-09-06T01:47:40.066Z,90.40
2018-09-06T01:50:24.737Z,90.40
2018-09-06T01:53:09.184Z,90.40
2018-09-06T01:55:53.373Z,90.50
2018-09-06T01:58:37.472Z,90.60
2018-09-06T02:01:21.251Z,90.70
2018-09-06T02:04:05.054Z,90.80
2018-09-06T02:06:49.567Z,91.00
2018-09-06T02:09:33.346Z,91.00
2018-09-06T02:12:18.154Z,91.20
2018-09-06T02:15:01.909Z,91.40
2018-09-06T02:17:45.978Z,91.40
2018-09-06T02:23:14.027Z,91.60
2018-09-06T02:25:58.071Z,91.70
2018-09-06T02:28:42.231Z,91.70
2018-09-06T02:31:26.279Z,91.60
2018-09-06T02:34:10.941Z,91.60
2018-09-06T02:36:55.065Z,91.60
2018-09-06T02:39:38.830Z,91.70
2018-09-06T02:42:23.013Z,91.70
2018-09-06T02:45:07.666Z,92.00
2018-09-06T02:47:54.725Z,92.20
2018-09-06T02:50:44.093Z,92.30
2018-09-06T02:53:30.098Z,92.30
2018-09-06T02:56:14.996Z,92.40
2018-09-06T02:58:59.042Z,92.70
2018-09-06T03:01:43.043Z,92.50
2018-09-06T03:04:27.186Z,92.60
2018-09-06T03:07:11.485Z,92.60
2018-09-06T03:09:55.606Z,92.60
2018-09-06T03:12:40.005Z,92.60
2018-09-06T03:15:24.091Z,92.50
2018-09-06T03:18:08.239Z,92.60
2018-09-06T03:20:52.125Z,92.60
2018-09-06T03:23:36.171Z,92.70
2018-09-06T03:26:21.096Z,92.70
2018-09-06T03:29:05.654Z,92.80
2018-09-06T03:31:49.701Z,93.00
2018-09-06T03:34:33.888Z,93.10
2018-09-06T03:37:18.022Z,93.40
2018-09-06T03:40:02.453Z,93.10
2018-09-06T03:42:46.702Z,93.00
2018-09-06T03:45:31.264Z,93.00
2018-09-06T03:48:14.987Z,92.90
2018-09-06T03:50:59.073Z,93.20
2018-09-06T03:53:43.291Z,93.20
2018-09-06T03:56:28.134Z,93.40
2018-09-06T03:59:12.287Z,93.70
2018-09-06T04:01:55.993Z,94.00
2018-09-06T04:04:40.505Z,94.20
2018-09-06T04:07:24.240Z,94.40
2018-09-06T04:10:08.410Z,94.50
2018-09-06T04:12:52.627Z,94.60
2018-09-06T04:15:37.196Z,94.90
2018-09-06T04:18:20.972Z,94.90
2018-09-06T04:21:05.110Z,95.40
2018-09-06T04:23:48.954Z,95.60
2018-09-06T04:26:33.054Z,95.80
2018-09-06T04:29:17.215Z,95.90
2018-09-06T04:32:00.943Z,96.10
2018-09-06T04:34:44.732Z,96.10
2018-09-06T04:37:28.561Z,96.20
2018-09-06T04:42:56.367Z,96.20
2018-09-06T04:45:40.167Z,96.20
2018-09-06T04:48:23.886Z,96.30
2018-09-06T04:51:07.758Z,96.40
2018-09-06T04:53:51.816Z,96.50
2018-09-06T04:56:35.874Z,96.60
2018-09-06T04:59:19.645Z,96.80
2018-09-06T05:02:03.397Z,96.90
2018-09-06T05:04:47.187Z,97.00
2018-09-06T05:07:30.939Z,97.10
2018-09-06T05:10:15.007Z,97.10
2018-09-06T05:12:58.802Z,97.20
2018-09-06T05:15:42.833Z,97.20
2018-09-06T05:18:26.638Z,97.20
2018-09-06T05:23:53.786Z,97.20
2018-09-06T05:26:37.868Z,97.20
2018-09-06T05:29:21.895Z,97.20
2018-09-06T05:32:05.620Z,97.10
2018-09-06T05:34:49.947Z,96.80
2018-09-06T05:37:33.734Z,98.20
2018-09-06T05:40:17.507Z,96.30
2018-09-06T05:43:01.640Z,96.00
2018-09-06T05:48:28.870Z,95.40
2018-09-06T05:51:12.614Z,95.10
2018-09-06T05:53:57.065Z,95.00
2018-09-06T05:56:40.828Z,93.60
2018-09-06T06:02:07.994Z,82.80
2018-09-06T06:04:51.802Z,77.90
2018-09-06T06:07:47.072Z,72.00
2018-09-06T06:10:31.165Z,70.30
2018-09-06T06:13:15.658Z,63.40
2018-09-06T06:15:59.817Z,63.90
2018-09-06T06:18:44.810Z,59.40
2018-09-06T06:21:28.553Z,58.30
2018-09-06T06:24:12.692Z,55.90
2018-09-06T06:26:56.402Z,54.70
2018-09-06T06:29:40.198Z,53.60
2018-09-06T06:32:24.397Z,50.90
2018-09-06T06:35:08.772Z,49.50
2018-09-06T06:37:52.787Z,49.50
2018-09-06T06:40:36.893Z,48.80
2018-09-06T06:43:21.094Z,45.00
2018-09-06T06:46:06.629Z,43.10
2018-09-06T06:48:50.673Z,40.50
2018-09-06T06:54:25.131Z,38.00
2018-09-06T06:57:08.876Z,38.60
2018-09-06T06:59:52.728Z,36.20
2018-09-06T07:02:36.737Z,34.60
2018-09-06T07:05:24.632Z,33.30
2018-09-06T07:08:09.595Z,33.00
2018-09-06T07:10:53.712Z,33.70
2018-09-06T07:13:37.910Z,34.00
2018-09-06T07:16:22.012Z,33.90
2018-09-06T07:19:05.816Z,35.10
2018-09-06T07:21:49.554Z,35.30
2018-09-06T07:24:33.285Z,35.40
2018-09-06T07:27:17.166Z,35.00
2018-09-06T07:30:01.536Z,31.90
2018-09-06T07:32:46.746Z,31.50
2018-09-06T07:35:31.579Z,31.00
2018-09-06T07:38:15.347Z,31.60
2018-09-06T07:40:59.441Z,31.70
2018-09-06T07:43:43.696Z,30.20
2018-09-06T07:46:27.750Z,30.00
2018-09-06T07:49:12.046Z,29.40
2018-09-06T07:51:56.217Z,29.10
2018-09-06T07:54:40.288Z,29.90
2018-09-06T07:57:23.975Z,30.10
2018-09-06T08:00:08.129Z,30.30
2018-09-06T08:02:51.822Z,29.90
2018-09-06T08:05:35.542Z,28.00
2018-09-06T08:08:19.583Z,28.40
2018-09-06T08:11:03.295Z,27.70
2018-09-06T08:13:47.576Z,26.10
2018-09-06T08:16:31.322Z,25.60
2018-09-06T08:19:15.047Z,24.80
2018-09-06T08:21:58.823Z,24.70
2018-09-06T08:24:42.541Z,23.70
2018-09-06T08:27:26.276Z,23.30
2018-09-06T08:30:10.504Z,24.40
2018-09-06T08:32:54.274Z,22.60
2018-09-06T08:35:38.082Z,22.60
2018-09-06T08:38:21.821Z,22.40
2018-09-06T08:41:05.645Z,22.00
2018-09-06T08:43:49.417Z,21.10
2018-09-06T08:46:33.598Z,20.80
2018-09-06T08:49:17.429Z,20.70
2018-09-06T08:52:01.251Z,21.10
2018-09-06T08:54:44.942Z,21.50
2018-09-06T08:57:29.116Z,21.70
2018-09-06T09:00:19.568Z,22.40
2018-09-06T09:03:03.295Z,22.30
2018-09-06T09:05:47.369Z,22.10
2018-09-06T09:08:31.460Z,22.10
2018-09-06T09:13:58.577Z,20.60
2018-09-06T09:16:42.323Z,20.10
2018-09-06T09:19:26.047Z,19.40
2018-09-06T09:22:09.871Z,18.80
2018-09-06T09:24:53.540Z,18.70
2018-09-06T09:27:37.304Z,18.60
2018-09-06T09:30:21.011Z,18.50
2018-09-06T09:33:04.785Z,18.00
2018-09-06T09:35:48.511Z,17.60
2018-09-06T09:38:32.283Z,17.40
2018-09-06T09:41:16.371Z,17.70
2018-09-06T09:44:00.398Z,16.70
2018-09-06T09:49:27.443Z,16.90
2018-09-06T09:52:11.428Z,16.60
2018-09-06T09:54:55.174Z,16.90
2018-09-06T09:57:39.234Z,16.90
2018-09-06T10:00:28.863Z,16.90
2018-09-06T10:03:17.923Z,17.20
2018-09-06T10:06:07.868Z,17.70
2018-09-06T10:08:56.942Z,18.00
2018-09-06T10:11:40.727Z,18.70
2018-09-06T10:14:24.535Z,18.60
2018-09-06T10:17:08.712Z,18.60
2018-09-06T10:19:52.550Z,18.60
2018-09-06T10:22:36.490Z,19.00
2018-09-06T10:25:20.518Z,19.30
2018-09-06T10:28:04.847Z,19.90
2018-09-06T10:30:48.946Z,20.30
2018-09-06T10:33:33.553Z,20.40
2018-09-06T10:36:18.066Z,21.00
2018-09-06T10:39:02.593Z,20.40
2018-09-06T10:41:46.719Z,20.00
2018-09-06T10:44:30.479Z,20.20
2018-09-06T10:47:14.730Z,20.60
2018-09-06T10:49:58.451Z,20.50
2018-09-06T10:55:25.616Z,20.70
2018-09-06T10:58:09.639Z,21.60
2018-09-06T11:00:58.751Z,21.70
2018-09-06T11:03:43.242Z,22.60
2018-09-06T11:06:27.002Z,22.90
2018-09-06T11:09:12.120Z,23.20
2018-09-06T11:11:56.326Z,23.10
2018-09-06T11:17:24.234Z,23.50
2018-09-06T11:20:08.412Z,24.40
2018-09-06T11:22:52.278Z,25.00
2018-09-06T11:25:36.572Z,25.20
2018-09-06T11:28:20.291Z,25.30
2018-09-06T11:31:04.357Z,25.90
2018-09-06T11:33:48.081Z,26.00
2018-09-06T11:36:32.244Z,25.50
2018-09-06T11:39:16.442Z,26.00
2018-09-06T11:42:00.205Z,25.70
2018-09-06T11:44:44.302Z,25.50
2018-09-06T11:47:28.513Z,24.90
2018-09-06T11:50:12.327Z,24.80
2018-09-06T11:52:56.931Z,25.80
2018-09-06T11:55:40.709Z,26.20
2018-09-06T11:58:25.176Z,26.50
2018-09-06T12:01:09.190Z,26.40
2018-09-06T12:03:53.729Z,26.50
2018-09-06T12:06:38.095Z,26.90
2018-09-06T12:09:22.140Z,26.90
2018-09-06T12:12:06.219Z,26.80
2018-09-06T12:14:50.028Z,26.90
2018-09-06T12:17:34.165Z,26.60
2018-09-06T12:20:18.359Z,26.70
2018-09-06T12:23:02.462Z,27.00
2018-09-06T12:25:46.340Z,27.10
2018-09-06T12:28:30.459Z,27.20
2018-09-06T12:31:14.501Z,27.80
2018-09-06T12:33:59.363Z,28.20
2018-09-06T12:36:43.106Z,27.70
2018-09-06T12:39:27.130Z,27.90
2018-09-06T12:42:12.506Z,27.80
2018-09-06T12:44:56.729Z,27.90
2018-09-06T12:47:40.830Z,28.10
2018-09-06T12:50:25.468Z,28.50
2018-09-06T12:53:10.661Z,29.00
2018-09-06T12:55:54.413Z,29.50
2018-09-06T12:58:38.215Z,29.70
2018-09-06T13:01:22.874Z,29.80
2018-09-06T13:04:06.899Z,30.00
2018-09-06T13:06:50.665Z,30.10
2018-09-06T13:09:34.375Z,30.60
2018-09-06T13:12:19.063Z,30.70
2018-09-06T13:15:03.239Z,31.20
2018-09-06T13:17:47.084Z,31.40
2018-09-06T13:20:30.783Z,30.90
2018-09-06T13:23:14.501Z,30.60
2018-09-06T13:28:42.058Z,30.20
2018-09-06T13:31:27.709Z,30.20
2018-09-06T13:36:55.601Z,30.50
2018-09-06T13:39:39.348Z,31.40
2018-09-06T13:45:06.547Z,32.60
2018-09-06T13:47:50.451Z,32.20
2018-09-06T13:50:34.192Z,33.20
2018-09-06T13:56:01.599Z,38.50
2018-09-06T13:58:45.354Z,47.90
2018-09-06T14:01:29.059Z,58.20
2018-09-06T14:04:12.885Z,67.30
2018-09-06T14:06:56.727Z,65.90
2018-09-06T14:09:41.800Z,66.20
2018-09-06T14:12:25.831Z,69.40
2018-09-06T14:15:09.931Z,67.60
2018-09-06T14:17:53.819Z,68.40
2018-09-06T14:20:37.511Z,68.80
2018-09-06T14:23:21.904Z,68.90
2018-09-06T14:26:07.550Z,69.20
2018-09-06T14:28:52.353Z,69.90
2018-09-06T14:31:37.862Z,70.10
2018-09-06T14:34:23.235Z,70.80
2018-09-06T14:37:09.528Z,71.50
2018-09-06T14:39:54.601Z,71.60
2018-09-06T14:42:38.640Z,72.90
2018-09-06T14:45:23.794Z,73.30
2018-09-06T14:48:08.251Z,73.30
2018-09-06T14:50:52.807Z,72.90
2018-09-06T14:53:36.850Z,72.60
2018-09-06T14:56:21.775Z,73.30
2018-09-06T14:59:06.791Z,72.60
2018-09-06T15:01:51.717Z,72.40
2018-09-06T15:04:36.670Z,72.50
2018-09-06T15:10:10.541Z,69.90
2018-09-06T15:12:54.289Z,67.10
2018-09-06T15:15:40.434Z,65.00
2018-09-06T15:18:24.158Z,66.20
2018-09-06T15:23:52.678Z,66.10
2018-09-06T15:26:36.839Z,66.70
2018-09-06T15:29:20.874Z,68.60
2018-09-06T15:32:04.951Z,67.50
2018-09-06T15:34:48.670Z,68.90
2018-09-06T15:37:32.410Z,69.10
2018-09-06T15:40:16.726Z,68.50
2018-09-06T15:43:02.459Z,67.60
2018-09-06T15:45:47.231Z,66.60
2018-09-06T15:48:36.078Z,67.40
2018-09-06T15:51:20.380Z,67.50
2018-09-06T15:54:07.766Z,67.30
2018-09-06T15:59:37.386Z,68.50
2018-09-06T16:02:21.174Z,68.70
2018-09-06T16:05:05.266Z,70.00
2018-09-06T16:07:49.312Z,70.00
2018-09-06T16:10:33.847Z,71.30
2018-09-06T16:13:17.709Z,72.60
2018-09-06T16:16:02.130Z,73.60
2018-09-06T16:18:46.059Z,73.30
2018-09-06T16:21:29.905Z,72.70
2018-09-06T16:24:13.765Z,71.80
2018-09-06T16:26:57.476Z,71.40
2018-09-06T16:29:41.226Z,70.40
2018-09-06T16:32:25.361Z,70.10
2018-09-06T16:35:09.522Z,69.90
2018-09-06T16:37:53.521Z,70.50
2018-09-06T16:40:37.304Z,70.90
2018-09-06T16:43:21.626Z,71.30
2018-09-06T16:46:05.692Z,71.80
2018-09-06T16:48:49.509Z,72.10
2018-09-06T16:51:33.574Z,72.10
2018-09-06T16:54:17.319Z,71.90
2018-09-06T16:57:01.034Z,71.90
2018-09-06T16:59:44.808Z,71.90
2018-09-06T17:02:29.034Z,72.30
2018-09-06T17:05:13.186Z,72.30
2018-09-06T17:07:57.233Z,74.20
2018-09-06T17:10:40.971Z,73.20
2018-09-06T17:13:25.185Z,72.60
2018-09-06T17:18:53.110Z,72.80
2018-09-06T17:21:37.503Z,73.20
2018-09-06T17:24:21.753Z,73.40
2018-09-06T17:27:05.553Z,74.60
2018-09-06T17:29:49.335Z,75.70
2018-09-06T17:32:33.506Z,77.00
2018-09-06T17:35:17.224Z,80.90
2018-09-06T17:38:01.241Z,78.90
2018-09-06T17:40:45.358Z,79.60
2018-09-06T17:43:29.421Z,80.50
2018-09-06T17:46:13.461Z,80.30
2018-09-06T17:48:58.167Z,81.10
2018-09-06T17:54:26.265Z,82.20
2018-09-06T17:57:09.989Z,81.70
2018-09-06T17:59:54.041Z,83.00
2018-09-06T18:02:37.827Z,84.10
2018-09-06T18:05:22.454Z,84.80
2018-09-06T18:08:06.234Z,84.70
2018-09-06T18:10:49.988Z,84.80
2018-09-06T18:13:33.719Z,83.40
2018-09-06T18:16:17.442Z,85.70
2018-09-06T18:19:01.193Z,85.40
2018-09-06T18:21:44.922Z,84.90
2018-09-06T18:24:28.677Z,85.40
2018-09-06T18:27:12.433Z,85.50
2018-09-06T18:29:56.692Z,84.00
2018-09-06T18:32:40.823Z,85.70
2018-09-06T18:35:25.457Z,86.60
2018-09-06T18:38:09.434Z,84.70
2018-09-06T18:40:53.227Z,83.70
2018-09-06T18:46:20.401Z,81.80
2018-09-06T18:49:04.790Z,82.70
2018-09-06T18:51:49.201Z,83.80
2018-09-06T18:57:16.422Z,85.10
2018-09-06T19:00:01.262Z,86.20
2018-09-06T19:02:45.019Z,86.20
2018-09-06T19:05:28.752Z,85.70
2018-09-06T19:08:12.810Z,86.20
2018-09-06T19:10:56.813Z,85.70
2018-09-06T19:13:40.899Z,85.70
2018-09-06T19:16:24.703Z,86.20
2018-09-06T19:19:08.919Z,85.30
2018-09-06T19:21:52.671Z,86.40
2018-09-06T19:24:36.797Z,86.80
2018-09-06T19:27:20.524Z,87.70
2018-09-06T19:30:04.619Z,87.80
2018-09-06T19:32:48.818Z,87.70
2018-09-06T19:35:33.557Z,87.40
2018-09-06T19:38:17.321Z,87.60
2018-09-06T19:41:01.446Z,87.90
2018-09-06T19:43:45.182Z,88.80
2018-09-06T19:46:29.692Z,88.70
2018-09-06T19:49:13.889Z,88.50
2018-09-06T19:51:57.906Z,89.30
2018-09-06T19:54:42.021Z,89.30
2018-09-06T19:57:26.078Z,89.70
2018-09-06T20:00:10.227Z,90.00
2018-09-06T20:02:54.192Z,90.50
2018-09-06T20:05:37.920Z,90.40
2018-09-06T20:08:21.968Z,90.60
2018-09-06T20:11:05.997Z,90.80
2018-09-06T20:13:50.250Z,90.30
2018-09-06T20:16:34.404Z,91.10
2018-09-06T20:19:18.562Z,90.70
2018-09-06T20:22:02.600Z,90.70
2018-09-06T20:27:29.672Z,90.90
2018-09-06T20:30:13.376Z,90.60
2018-09-06T20:32:57.414Z,90.60
2018-09-06T20:35:41.483Z,90.50
2018-09-06T20:38:25.247Z,90.50
2018-09-06T20:41:09.624Z,90.30
2018-09-06T20:43:53.803Z,90.40
2018-09-06T20:46:37.988Z,90.50
2018-09-06T20:49:22.130Z,90.70
2018-09-06T20:52:06.691Z,90.70
2018-09-06T20:54:50.429Z,91.10
2018-09-06T20:57:34.160Z,91.20
2018-09-06T21:00:17.903Z,90.90
2018-09-06T21:03:02.337Z,90.90
2018-09-06T21:05:46.095Z,90.90
2018-09-06T21:08:30.764Z,90.90
2018-09-06T21:11:14.473Z,91.20
2018-09-06T21:13:58.254Z,91.40
2018-09-06T21:16:42.302Z,91.90
2018-09-06T21:19:26.067Z,92.30
2018-09-06T21:22:09.859Z,92.70
2018-09-06T21:24:54.028Z,92.90
2018-09-06T21:27:37.764Z,93.10
2018-09-06T21:30:22.117Z,93.50
2018-09-06T21:33:06.215Z,93.60
2018-09-06T21:35:53.464Z,93.90
2018-09-06T21:38:37.844Z,94.10
2018-09-06T21:41:21.765Z,93.90
2018-09-06T21:44:06.190Z,94.30
2018-09-06T21:46:50.251Z,94.90
2018-09-06T21:49:33.998Z,95.30
2018-09-06T21:52:18.511Z,95.80
2018-09-06T21:55:02.370Z,96.30
2018-09-06T21:57:46.152Z,96.30
2018-09-06T22:00:30.281Z,97.00
2018-09-06T22:04:22.959Z,96.90
2018-09-06T22:07:06.662Z,96.60
2018-09-06T22:09:51.309Z,97.10
2018-09-06T22:12:35.146Z,97.20
2018-09-06T22:15:19.159Z,97.40
2018-09-06T22:18:02.900Z,97.70
2018-09-06T22:20:46.747Z,97.90
2018-09-06T22:23:30.531Z,98.00
2018-09-06T22:26:14.633Z,98.20
2018-09-06T22:28:58.543Z,98.40
2018-09-06T22:31:42.509Z,98.90
2018-09-06T22:34:26.631Z,98.60
2018-09-06T22:37:10.549Z,98.50
2018-09-06T22:39:54.280Z,98.50
2018-09-06T22:42:38.408Z,98.50
2018-09-06T22:45:22.157Z,98.80
2018-09-06T22:48:05.986Z,99.00
2018-09-06T22:50:49.677Z,99.00
2018-09-06T22:53:34.266Z,99.00
2018-09-06T22:56:18.680Z,99.10
2018-09-06T22:59:02.890Z,99.20
2018-09-06T23:01:47.026Z,99.10
2018-09-06T23:04:31.144Z,99.20
2018-09-06T23:07:14.895Z,99.20
2018-09-06T23:09:59.082Z,98.70
2018-09-06T23:12:42.802Z,98.80
2018-09-06T23:15:26.750Z,98.90
2018-09-06T23:18:10.787Z,98.80
2018-09-06T23:20:55.194Z,98.50
2018-09-06T23:23:39.293Z,98.80
2018-09-06T23:26:23.360Z,98.40
2018-09-06T23:29:07.432Z,98.10
2018-09-06T23:31:51.835Z,98.20
2018-09-06T23:34:35.889Z,99.30
2018-09-06T23:37:19.923Z,99.90
2018-09-06T23:40:03.641Z,99.90
2018-09-06T23:42:47.365Z,99.90
2018-09-06T23:45:38.125Z,99.90
2018-09-06T23:48:24.211Z,99.90
2018-09-06T23:51:07.946Z,99.90
2018-09-06T23:59:20.181Z,99.90
